Latest Weather Observations for Liawenee

IDT60801

Issued at 9:35 am EDT Sunday 26 October 2014 (issued every 30 minutes, with the page automatically refreshed every 10 minutes)

About weather observations | Map of weather stations | Latest weather observations for TAS | Other Formats
Station Details ID: 096033 Name: LIAWENEE Lat: -41.90 Lon: 146.67 Height: 1057.0 m
Data from the previous 72 hours. | See also: Recent months at Liawenee
Date/Time
EDT
Temp
°C
App
Temp
°C
Dew
Point
Rel
Hum
%
Delta-T
°C
Wind Press
QNH
hPa
Press
MSL
hPa
Rain
since 9 am
mm
Dir
 
Spd
km/h
Gust
km/h
Spd
kts
Gust
kts
26/09:30am 9.2 6.9 7.3 88 1.0 N 9 15 5 8 1013.2 1013.6 0.0
26/09:00am 8.5 6.5 7.3 92 0.6 N 7 15 4 8 1013.2 1013.6 2.0
26/08:30am 8.2 6.2 7.1 93 0.5 NNE 7 11 4 6 1012.9 1013.3 2.0
26/08:00am 7.9 5.5 6.8 93 0.5 NNE 9 15 5 8 1013.0 1013.4 2.0
26/07:30am 7.4 4.6 7.0 97 0.2 NE 11 15 6 8 1013.0 1013.4 2.0
26/07:00am 7.2 4.4 6.8 97 0.2 NE 11 13 6 7 1012.9 1013.3 2.0
26/06:30am 7.0 4.8 6.4 96 0.3 NE 7 9 4 5 1012.9 1013.3 2.0
26/06:00am 7.0 4.1 6.3 95 0.3 N 11 17 6 9 1012.9 1013.3 2.0
26/05:30am 7.0 3.7 6.3 95 0.3 N 13 19 7 10 1012.7 1013.2 2.0
26/05:00am 7.2 4.7 6.5 95 0.3 N 9 17 5 9 1013.1 1013.5 1.8
26/04:30am 7.3 4.4 6.6 95 0.3 N 11 15 6 8 1013.0 1013.4 1.8
26/04:00am 7.4 5.0 6.8 96 0.3 N 9 13 5 7 1013.4 1013.9 1.6
26/03:30am 7.6 5.2 6.9 95 0.3 N 9 15 5 8 1013.6 1014.1 1.2
26/03:00am 7.5 5.5 6.9 96 0.3 NNE 7 13 4 7 1013.2 1013.6 1.2
26/02:30am 7.6 4.1 7.0 96 0.3 N 15 26 8 14 1013.0 1013.4 1.2
26/02:00am 7.7 4.6 7.1 96 0.3 NNE 13 24 7 13 1014.0 1014.4 1.0
26/01:30am 7.8 3.9 7.1 95 0.3 NNE 17 28 9 15 1014.4 1014.9 1.0
26/01:00am 8.0 4.9 7.4 96 0.3 N 13 17 7 9 1015.6 1016.1 0.8
26/12:30am 8.1 5.1 7.5 96 0.3 NNW 13 26 7 14 1016.0 1016.5 0.6
26/12:00am 8.1 3.9 7.5 96 0.3 NW 19 26 10 14 1016.0 1016.5 0.0
 
Date/Time
EDT
Temp
°C
App
Temp
°C
Dew
Point
Rel
Hum
%
Delta-T
°C
Wind Press
QNH
hPa
Press
MSL
hPa
Rain
since 9 am
mm
Dir
 
Spd
km/h
Gust
km/h
Spd
kts
Gust
kts
25/11:30pm 8.6 4.8 7.7 94 0.5 N 17 30 9 16 1015.5 1016.0 0.0
25/11:00pm 8.9 6.3 7.8 93 0.6 NNE 11 30 6 16 1015.1 1015.6 0.0
25/10:30pm 9.3 7.4 7.7 90 0.8 N 7 13 4 7 1015.7 1016.2 0.0
25/10:00pm 9.4 6.4 7.8 90 0.8 NNW 13 22 7 12 1015.9 1016.4 0.0
25/09:30pm 9.5 7.3 7.8 89 0.9 N 9 24 5 13 1015.9 1016.4 0.0
25/09:00pm 9.4 6.5 8.3 93 0.6 N 13 24 7 13 1016.1 1016.6 0.0
25/08:30pm 9.6 5.6 8.2 91 0.7 N 19 35 10 19 1016.1 1016.6 0.0
25/08:00pm 10.0 6.8 8.3 89 0.9 N 15 20 8 11 1015.4 1015.9 0.0
25/07:30pm 10.1 6.1 8.2 88 1.0 N 19 33 10 18 1015.1 1015.6 0.0
25/07:00pm 10.9 7.4 8.7 86 1.2 N 17 26 9 14 1015.2 1015.7 0.0
25/06:30pm 12.1 9.4 8.8 80 1.7 N 13 20 7 11 1015.0 1015.5 0.0
25/06:00pm 13.6 10.4 8.4 71 2.8 N 15 22 8 12 1014.7 1015.2 0.0
25/05:30pm 14.4 10.9 7.2 62 3.7 NNE 15 20 8 11 1014.9 1015.3 0.0
25/05:00pm 16.1 12.8 6.5 53 5.0 NNE 13 15 7 8 1014.6 1015.1 0.0
25/04:30pm 15.4 12.2 6.7 56 4.5 NNE 13 19 7 10 1014.9 1015.3 0.0
25/04:00pm 15.1 11.5 6.9 58 4.3 NNE 15 20 8 11 1015.0 1015.5 0.0
25/03:30pm 15.7 13.3 7.2 57 4.4 ENE 9 17 5 9 1015.2 1015.7 0.0
25/03:00pm 16.4 12.6 6.0 50 5.3 NE 15 20 8 11 1015.0 1015.5 0.0
25/02:30pm 16.4 12.7 4.4 45 6.0 ENE 13 19 7 10 1015.4 1015.9 0.0
25/02:00pm 16.3 12.2 4.4 45 5.9 ENE 15 24 8 13 1015.6 1016.1 0.0
25/01:30pm 16.8 13.1 4.5 44 6.1 ENE 13 20 7 11 1015.6 1016.1 0.0
25/01:00pm 15.9 12.3 3.0 42 6.2 NE 11 20 6 11 1015.9 1016.4 0.0
25/12:30pm 15.0 11.1 5.2 52 4.9 E 15 20 8 11 1016.0 1016.5 0.0
25/12:00pm 14.7 12.1 6.0 56 4.4 SE 9 13 5 7 1016.1 1016.6 0.0
25/11:30am 15.2 12.1 5.4 52 4.9 SW 11 17 6 9 1016.1 1016.6 0.0
25/11:00am 13.1 10.2 4.5 56 4.2 SSW 9 15 5 8 1016.4 1016.9 0.0
25/10:30am 12.3 10.0 5.5 63 3.4 S 7 17 4 9 1016.2 1016.7 0.0
25/10:00am 11.4 8.8 5.9 69 2.7 SW 9 19 5 10 1016.0 1016.5 0.0
25/09:30am 11.6 8.1 7.3 75 2.2 SW 15 20 8 11 1015.6 1016.1 0.0
25/09:00am 9.6 4.9 6.0 78 1.8 SW 20 30 11 16 1015.4 1015.9 0.0
25/08:30am 10.3 5.3 6.5 77 1.9 SW 22 32 12 17 1015.2 1015.7 0.0
25/08:00am 9.2 4.5 5.9 80 1.6 SW 20 24 11 13 1015.0 1015.5 0.0
25/07:30am 8.5 3.7 5.4 81 1.5 WSW 20 26 11 14 1014.6 1015.1 0.0
25/07:00am 7.4 3.9 5.5 88 0.9 SSW 13 19 7 10 1014.5 1015.0 0.0
25/06:30am 7.2 2.6 5.7 90 0.7 SW 19 24 10 13 1014.1 1014.5 0.0
25/06:00am 6.9 2.3 5.4 90 0.7 SSW 19 26 10 14 1013.7 1014.2 0.0
25/05:30am 7.8 3.7 6.1 89 0.8 SW 17 20 9 11 1013.2 1013.6 0.0
25/05:00am 7.9 4.1 6.0 88 0.9 WSW 15 20 8 11 1013.2 1013.6 0.0
25/04:30am 8.1 3.6 6.2 88 0.9 WSW 19 26 10 14 1012.6 1013.1 0.0
25/04:00am 7.7 2.2 6.0 89 0.8 SW 24 32 13 17 1012.3 1012.7 0.0
25/03:30am 7.6 4.2 6.1 90 0.7 WSW 13 19 7 10 1012.1 1012.5 0.0
25/03:00am 7.7 3.0 6.2 90 0.7 WSW 20 28 11 15 1012.1 1012.5 0.0
25/02:30am 6.9 2.1 5.5 91 0.7 WSW 20 30 11 16 1011.6 1012.0 0.0
25/02:00am 7.0 3.7 6.3 95 0.3 SW 13 22 7 12 1011.5 1011.9 0.0
25/01:30am 7.3 3.2 6.2 93 0.5 WSW 17 20 9 11 1011.4 1011.8 0.0
25/01:00am 6.5 3.9 5.9 96 0.3 W 9 13 5 7 1011.8 1012.2 0.0
25/12:30am 6.2 2.7 5.5 95 0.3 WSW 13 19 7 10 1011.8 1012.2 0.0
25/12:00am 7.4 4.2 6.7 95 0.3 WNW 13 17 7 9 1011.2 1011.6 0.0
 
Date/Time
EDT
Temp
°C
App
Temp
°C
Dew
Point
Rel
Hum
%
Delta-T
°C
Wind Press
QNH
hPa
Press
MSL
hPa
Rain
since 9 am
mm
Dir
 
Spd
km/h
Gust
km/h
Spd
kts
Gust
kts
24/11:30pm 7.7 4.2 7.0 95 0.3 W 15 20 8 11 1011.1 1011.5 0.0
24/11:00pm 8.2 5.9 7.3 94 0.4 W 9 17 5 9 1011.1 1011.5 0.0
24/10:30pm 8.2 6.3 6.7 90 0.7 SW 6 13 3 7 1011.4 1011.8 0.0
24/10:00pm 8.9 6.6 7.4 90 0.8 WSW 9 11 5 6 1011.5 1011.9 0.0
24/09:30pm 9.9 7.5 8.8 93 0.6 W 11 17 6 9 1012.0 1012.4 0.0
24/09:00pm 9.8 8.1 8.4 91 0.7 SSW 7 11 4 6 1011.9 1012.3 0.0
24/08:30pm 10.3 8.4 9.1 92 0.6 SSE 9 17 5 9 1011.2 1011.6 0.0
24/08:00pm 10.7 8.9 9.3 91 0.7 N 9 15 5 8 1010.9 1011.2 0.0
24/07:30pm 11.2 8.7 9.8 91 0.8 NNE 13 30 7 16 1010.8 1011.1 0.0
24/07:00pm 11.5 9.6 10.4 93 0.6 NNE 11 24 6 13 1010.5 1010.9 0.0
24/06:30pm 11.6 9.2 10.2 91 0.8 NNE 13 20 7 11 1010.6 1011.0 0.0
24/06:00pm 11.7 9.4 10.6 93 0.6 N 13 24 7 13 1011.5 1011.9 0.0
24/05:30pm 12.1 9.1 10.7 91 0.8 N 17 28 9 15 1011.1 1011.5 0.0
24/05:00pm 12.8 8.6 11.2 90 0.9 NNE 24 44 13 24 1010.4 1010.8 0.0
24/04:30pm 11.8 6.8 11.0 95 0.4 NNE 28 46 15 25 1010.8 1011.1 0.0
24/04:12pm 11.8 6.1 11.0 95 0.4 NNE 32 50 17 27 1011.3 1011.7 0.0
24/04:00pm 11.8 5.8 10.9 94 0.5 NNE 33 48 18 26 1011.5 1011.9 0.0
24/03:30pm 11.2 4.7 10.4 95 0.4 NNE 35 50 19 27 1011.5 1011.9 0.0
24/03:07pm 11.3 5.5 10.7 96 0.3 NNE 32 50 17 27 1011.9 1012.3 0.0
24/03:00pm 11.2 5.7 10.4 95 0.4 NNE 30 43 16 23 1012.2 1012.6 0.0
24/02:48pm 11.5 6.0 10.7 95 0.4 NNE 30 48 16 26 1012.4 1012.8 0.0
24/02:30pm 11.9 5.8 10.6 92 0.7 NNE 33 46 18 25 1012.5 1013.0 0.0
24/02:00pm 10.5 4.4 9.9 96 0.3 NNE 32 50 17 27 1013.3 1013.7 0.0
24/01:36pm 10.7 4.4 9.8 94 0.5 NNE 33 52 18 28 1013.6 1014.1 0.0
24/01:30pm 11.0 4.9 10.4 96 0.3 NNE 33 50 18 27 1013.6 1014.1 0.0
24/01:01pm 10.6 3.5 9.7 94 0.5 NNE 37 56 20 30 1014.1 1014.5 0.0
24/01:00pm 10.9 3.9 10.1 95 0.4 NNE 37 52 20 28 1014.0 1014.4 0.0
24/12:30pm 10.0 4.6 9.4 96 0.3 N 28 46 15 25 1015.1 1015.6 0.0
24/12:26pm 9.8 4.3 9.0 95 0.4 N 28 46 15 25 1015.3 1015.8 0.0
24/12:00pm 9.4 4.2 8.8 96 0.3 N 26 43 14 23 1015.5 1016.0 0.0
24/11:30am 9.2 3.6 8.7 97 0.3 N 28 48 15 26 1015.6 1016.1 0.0
24/11:00am 9.2 2.8 8.6 96 0.3 NNE 32 54 17 29 1015.7 1016.2 0.0
24/10:52am 9.5 3.2 8.9 96 0.3 NNE 32 50 17 27 1015.6 1016.1 0.0
24/10:30am 8.9 3.2 8.5 97 0.2 NNE 28 41 15 22 1016.1 1016.6 0.0
24/10:20am 8.9 3.2 8.3 96 0.3 NNE 28 46 15 25 1016.2 1016.7 0.0
24/10:00am 8.5 3.5 7.9 96 0.3 NNE 24 39 13 21 1016.4 1016.9 0.0
24/09:30am 8.2 3.8 7.6 96 0.3 NNE 20 33 11 18 1016.6 1017.2 0.0
24/09:00am 8.3 4.8 7.2 93 0.5 NNE 15 37 8 20 1017.1 1017.6 0.0
24/08:30am 8.8 6.1 7.3 90 0.8 NNE 11 20 6 11 1017.5 1018.1 0.0
24/08:00am 8.0 3.5 6.8 92 0.6 NNE 20 32 11 17 1017.7 1018.3 0.0
24/07:30am 7.2 1.0 6.3 94 0.4 NNE 28 48 15 26 1017.8 1018.4 0.0
24/07:00am 7.0 -0.1 6.4 96 0.3 NNE 33 54 18 29 1017.8 1018.4 0.0
24/06:52am 6.9 0.7 6.3 96 0.3 NNE 28 54 15 29 1017.7 1018.3 0.0
24/06:30am 6.2 0.2 5.2 93 0.5 NNE 26 41 14 22 1017.8 1018.4 0.0
24/06:02am 6.0 -1.4 4.0 87 0.9 NNE 32 50 17 27 1017.6 1018.2 0.0
24/06:00am 6.0 -1.4 4.0 87 0.9 NNE 32 46 17 25 1017.6 1018.2 0.0
24/05:30am 6.1 0.2 1.8 74 1.9 NNE 22 32 12 17 1017.8 1018.4 0.0
24/05:00am 6.2 0.9 -0.7 61 2.8 NNE 17 30 9 16 1018.2 1018.7 0.0
24/04:30am 5.4 -0.6 -3.4 53 3.3 NE 19 22 10 12 1018.7 1019.3 0.0
24/04:00am 4.7 0.6 -6.5 44 3.9 N 7 17 4 9 1019.3 1019.9 0.0
24/03:30am 6.7 1.4 -7.7 35 5.0 N 13 26 7 14 1019.6 1020.2 0.0
24/03:00am 6.0 -0.8 -9.0 33 4.9 NE 20 30 11 16 1019.8 1020.4 0.0
24/02:30am 3.8 -1.5 -7.3 44 3.7 NNE 13 22 7 12 1020.4 1021.0 0.0
24/02:00am -0.2 -3.8 -3.6 78 1.2 SE 6 7 3 4 1021.1 1021.7 0.0
24/01:30am 0.4 -3.7 -3.1 77 1.3 NE 9 11 5 6 1021.5 1022.2 0.0
24/01:00am 0.8 -3.6 -2.4 79 1.2 NNE 11 13 6 7 1022.1 1022.7 0.0
24/12:30am -0.5 -4.3 -3.9 78 1.2 NE 7 7 4 4 1022.4 1023.1 0.0
24/12:00am 2.8 -0.7 -1.0 76 1.5 NE 7 13 4 7 1022.7 1023.4 0.0
 
Date/Time
EDT
Temp
°C
App
Temp
°C
Dew
Point
Rel
Hum
%
Delta-T
°C
Wind Press
QNH
hPa
Press
MSL
hPa
Rain
since 9 am
mm
Dir
 
Spd
km/h
Gust
km/h
Spd
kts
Gust
kts
23/11:30pm 3.9 -0.2 -0.5 73 1.8 NNE 11 20 6 11 1022.6 1023.3 0.0
23/11:00pm 4.4 0.7 0.0 73 1.8 NNE 9 15 5 8 1022.9 1023.6 0.0
23/10:30pm 4.9 -0.2 0.7 74 1.7 NNE 17 22 9 12 1023.1 1023.7 0.0
23/10:00pm 4.6 0.5 0.0 72 1.9 NNE 11 15 6 8 1023.5 1024.2 0.0
23/09:30pm 5.9 0.8 0.7 69 2.2 NNE 17 24 9 13 1023.5 1024.2 0.0
23/09:00pm 6.3 2.3 0.4 66 2.5 NNE 11 17 6 9 1023.7 1024.4 0.0
23/08:30pm 7.3 3.3 0.7 63 2.8 N 11 17 6 9 1023.6 1024.3 0.0
23/08:00pm 7.6 3.2 0.3 60 3.1 N 13 19 7 10 1023.3 1024.0 0.0
23/07:30pm 9.0 4.6 0.5 55 3.7 NNE 13 17 7 9 1023.4 1024.1 0.0
23/07:00pm 10.8 6.4 0.2 48 4.6 NNE 13 20 7 11 1023.2 1023.9 0.0
23/06:30pm 12.1 7.1 -1.1 40 5.6 N 15 19 8 10 1023.1 1023.7 0.0
23/06:00pm 13.0 7.2 -1.3 37 6.1 NE 19 24 10 13 1023.1 1023.7 0.0
23/05:30pm 13.5 7.5 -2.8 32 6.8 NNE 19 24 10 13 1023.1 1023.7 0.0
23/05:00pm 14.6 8.6 -2.8 30 7.3 NE 19 24 10 13 1023.2 1023.9 0.0
23/04:30pm 14.1 7.8 -4.1 28 7.4 NNE 20 30 11 16 1023.2 1023.9 0.0
23/04:00pm 13.9 6.8 -4.8 27 7.5 NE 24 35 13 19 1023.1 1023.7 0.0
23/03:30pm 14.5 6.9 -5.8 24 8.0 NE 26 35 14 19 1023.1 1023.7 0.0
23/03:00pm 14.7 7.2 -4.6 26 7.8 NE 26 37 14 20 1023.2 1023.9 0.0
23/02:30pm 15.0 7.2 -3.8 27 7.8 NE 28 41 15 22 1023.1 1023.7 0.0
23/02:00pm 15.9 8.7 -2.1 29 7.8 NE 26 35 14 19 1023.1 1023.7 0.0
23/01:30pm 16.0 10.0 -1.5 30 7.7 NE 20 28 11 15 1022.8 1023.5 0.0
23/01:00pm 14.9 8.5 -4.9 25 8.0 E 20 30 11 16 1022.8 1023.5 0.0
23/12:30pm 14.0 8.6 -4.2 28 7.4 ENE 15 22 8 12 1022.9 1023.6 0.0
23/12:00pm 13.5 8.4 -2.0 34 6.6 E 15 24 8 13 1023.2 1023.9 0.0
23/11:30am 11.6 6.6 1.3 49 4.6 SE 17 22 9 12 1023.5 1024.2 0.0
23/11:00am 10.3 5.7 1.4 54 3.9 SE 15 26 8 14 1023.8 1024.5 0.0
23/10:30am 9.4 4.0 2.5 62 3.1 SE 20 28 11 15 1023.7 1024.4 0.0
23/10:00am 8.6 3.9 3.4 70 2.4 SE 17 22 9 12 1023.7 1024.4 0.0

Other Formats:

Comma delimited format used in spreadsheet applications
http://www.bom.gov.au/fwo/IDT60801/IDT60801.95959.axf

JavaScript Object Notation format (JSON) in row-major order
http://www.bom.gov.au/fwo/IDT60801/IDT60801.95959.json